Arcadia, Missouri
Current Conditions -  °F | °C
As of 12:15 AM on Saturday 01 Nov 2014 (Local Time) from KFAM Reporting Station
Clear Clear  
Wind Chill: 29°   Ceiling: Unl
Heat Index: 34°   Visibility: 10mi
Dew Point: 19°   Wind: 6mph
Humidity: 56%   Direction: 320°NW
Pressure: 30.36"   Gusts: NA
Location:  37.59°N, 90.63°W
Report Text: KFAM 010515Z AUTO 32005KT 10SM CLR 01/M07 A3036 RMK AO1
Loading
Personal Weather Stations






























Interactive Weather Map
Tropical Storm Tracking
New forecast layout! Learn more

10-Day Weather Forecast

Advertisements
Track Severe Weather on mobile